Terminal Aerodrome Forecast
Issued by NWS

Home | Current Version | Previous Version | Text Only | Print | Product List | Glossary On
Versions: 1 2 3 4 5 6 7 8 9 10 11 12 13 14 15 16 17 18 19 20 21 22 23 24 25 26 27 28
000
FTAK31 PAJK 192322
TAFAWG
TAF
PAWG 192322Z 2000/2024 VRB06KT P6SM VCSH SCT025 BKN040 OVC070
      TEMPO 2000/2004 6SM -SHRA BKN025 OVC040
     FM200800 VRB02KT P6SM VCSH FEW025 BKN040
     AMD LTD TO CLD VIS AND WIND 2006/2015=

USA.gov is the U.S. government's official web portal to all federal, state and local government web resources and services.